createdAt,value
2017-12-06T00:02:23.125Z,14.17
2017-12-06T00:04:49.880Z,14.07
2017-12-06T00:07:16.638Z,15.83
2017-12-06T00:09:44.145Z,15.60
2017-12-06T00:12:10.887Z,16.70
2017-12-06T00:14:37.625Z,15.20
2017-12-06T00:17:04.344Z,15.17
2017-12-06T00:19:31.100Z,16.23
2017-12-06T00:21:57.859Z,14.63
2017-12-06T00:24:24.583Z,16.10
2017-12-06T00:26:51.336Z,15.23
2017-12-06T00:29:18.103Z,15.23
2017-12-06T00:31:45.613Z,16.13
2017-12-06T00:34:12.339Z,15.27
2017-12-06T00:36:39.080Z,15.10
2017-12-06T00:39:05.828Z,13.73
2017-12-06T00:41:32.631Z,15.67
2017-12-06T00:44:00.156Z,14.87
2017-12-06T00:46:27.829Z,15.67
2017-12-06T00:48:54.583Z,15.70
2017-12-06T00:51:22.075Z,15.70
2017-12-06T00:53:48.836Z,16.33
2017-12-06T00:56:15.564Z,16.50
2017-12-06T00:58:42.314Z,16.50
2017-12-06T01:01:09.063Z,18.17
2017-12-06T01:03:35.777Z,14.93
2017-12-06T01:06:02.539Z,17.07
2017-12-06T01:08:29.322Z,15.60
2017-12-06T01:10:56.067Z,17.03
2017-12-06T01:13:23.554Z,15.50
2017-12-06T01:15:50.315Z,16.23
2017-12-06T01:18:17.046Z,17.03
2017-12-06T01:20:43.792Z,17.47
2017-12-06T01:23:10.522Z,16.37
2017-12-06T01:25:37.277Z,16.37
2017-12-06T01:28:04.131Z,17.03
2017-12-06T01:30:31.784Z,18.47
2017-12-06T01:32:58.520Z,18.50
2017-12-06T01:35:25.265Z,17.37
2017-12-06T01:37:51.991Z,17.37
2017-12-06T01:40:19.520Z,17.90
2017-12-06T01:42:46.255Z,19.47
2017-12-06T01:45:12.990Z,18.43
2017-12-06T01:47:39.806Z,18.63
2017-12-06T01:50:06.512Z,18.13
2017-12-06T01:52:33.252Z,19.60
2017-12-06T01:55:00.931Z,19.70
2017-12-06T01:57:28.445Z,20.83
2017-12-06T01:59:55.236Z,21.07
2017-12-06T02:02:22.756Z,19.63
2017-12-06T02:04:49.512Z,19.97
2017-12-06T02:07:17.000Z,20.97
2017-12-06T02:09:43.723Z,21.27
2017-12-06T02:12:11.251Z,20.73
2017-12-06T02:14:37.986Z,21.17
2017-12-06T02:17:04.732Z,22.37
2017-12-06T02:19:31.465Z,22.53
2017-12-06T02:21:58.213Z,21.77
2017-12-06T02:24:24.954Z,23.87
2017-12-06T02:26:51.725Z,22.30
2017-12-06T02:29:19.260Z,23.97
2017-12-06T02:31:46.758Z,23.60
2017-12-06T02:34:13.535Z,25.67
2017-12-06T02:36:40.276Z,24.70
2017-12-06T02:39:07.024Z,23.87
2017-12-06T02:41:35.267Z,25.50
2017-12-06T02:44:02.000Z,25.27
2017-12-06T02:46:28.757Z,25.17
2017-12-06T02:48:55.486Z,23.63
2017-12-06T02:51:22.238Z,25.13
2017-12-06T02:53:48.964Z,27.27
2017-12-06T02:56:15.714Z,24.73
2017-12-06T02:58:42.581Z,24.80
2017-12-06T03:01:10.257Z,24.73
2017-12-06T03:03:37.745Z,25.23
2017-12-06T03:06:04.490Z,24.53
2017-12-06T03:08:31.228Z,25.83
2017-12-06T03:10:57.987Z,24.73
2017-12-06T03:13:24.720Z,24.97
2017-12-06T03:15:51.443Z,24.37
2017-12-06T03:18:18.203Z,24.50
2017-12-06T03:20:44.941Z,24.53
2017-12-06T03:23:11.690Z,24.17
2017-12-06T03:25:38.455Z,24.40
2017-12-06T03:28:05.192Z,24.47
2017-12-06T03:30:31.920Z,23.63
2017-12-06T03:32:58.677Z,23.83
2017-12-06T03:35:26.175Z,24.53
2017-12-06T03:37:52.913Z,23.40
2017-12-06T03:40:19.645Z,23.57
2017-12-06T03:42:46.555Z,23.17
2017-12-06T03:45:14.082Z,22.97
2017-12-06T03:47:40.819Z,21.73
2017-12-06T03:50:07.556Z,23.43
2017-12-06T03:52:34.281Z,21.13
2017-12-06T03:55:01.128Z,22.87
2017-12-06T03:57:27.884Z,23.40
2017-12-06T03:59:54.619Z,21.17
2017-12-06T04:02:21.355Z,22.63
2017-12-06T04:04:48.846Z,20.13
2017-12-06T04:07:15.595Z,20.73
2017-12-06T04:09:42.351Z,20.57
2017-12-06T04:12:09.095Z,20.63
2017-12-06T04:14:35.835Z,21.77
2017-12-06T04:17:02.579Z,22.27
2017-12-06T04:19:29.302Z,21.70
2017-12-06T04:21:56.074Z,21.70
2017-12-06T04:24:22.820Z,21.40
2017-12-06T04:26:50.393Z,21.50
2017-12-06T04:29:17.134Z,20.80
2017-12-06T04:31:43.861Z,21.80
2017-12-06T04:34:10.602Z,20.83
2017-12-06T04:36:37.343Z,21.33
2017-12-06T04:39:04.080Z,20.73
2017-12-06T04:41:30.829Z,22.97
2017-12-06T04:43:57.563Z,22.00
2017-12-06T04:46:24.317Z,21.00
2017-12-06T04:48:51.892Z,20.43
2017-12-06T04:51:19.454Z,19.13
2017-12-06T04:53:46.172Z,21.23
2017-12-06T04:56:12.919Z,20.80
2017-12-06T04:58:40.431Z,21.67
2017-12-06T05:01:07.233Z,20.70
2017-12-06T05:03:34.751Z,20.90
2017-12-06T05:06:01.490Z,21.37
2017-12-06T05:08:28.249Z,17.33
2017-12-06T05:10:56.240Z,21.53
2017-12-06T05:13:23.993Z,19.83
2017-12-06T05:15:51.528Z,19.60
2017-12-06T05:18:19.072Z,18.73
2017-12-06T05:20:45.816Z,19.13
2017-12-06T05:23:12.554Z,19.17
2017-12-06T05:25:39.283Z,17.73
2017-12-06T05:28:06.038Z,17.20
2017-12-06T05:30:32.762Z,16.77
2017-12-06T05:32:59.539Z,17.67
2017-12-06T05:35:26.244Z,16.93
2017-12-06T05:37:52.983Z,17.33
2017-12-06T05:40:19.715Z,17.97
2017-12-06T05:42:46.482Z,15.93
2017-12-06T05:45:13.992Z,16.87
2017-12-06T05:47:40.743Z,17.30
2017-12-06T05:50:07.466Z,16.17
2017-12-06T05:52:34.288Z,16.00
2017-12-06T05:55:01.082Z,16.37
2017-12-06T05:57:27.816Z,16.47
2017-12-06T05:59:54.543Z,17.80
2017-12-06T06:02:21.317Z,16.50
2017-12-06T06:04:48.830Z,16.47
2017-12-06T06:07:15.566Z,18.37
2017-12-06T06:09:42.323Z,17.40
2017-12-06T06:12:09.055Z,17.97
2017-12-06T06:14:35.814Z,18.37
2017-12-06T06:17:02.559Z,17.57
2017-12-06T06:19:29.293Z,18.87
2017-12-06T06:21:56.027Z,18.30
2017-12-06T06:24:23.542Z,17.63
2017-12-06T06:26:50.281Z,17.90
2017-12-06T06:29:17.016Z,17.60
2017-12-06T06:31:43.802Z,18.00
2017-12-06T06:34:10.480Z,17.20
2017-12-06T06:36:37.218Z,18.10
2017-12-06T06:39:04.052Z,14.47
2017-12-06T06:41:30.807Z,17.13
2017-12-06T06:43:57.559Z,16.33
2017-12-06T06:46:24.312Z,15.53
2017-12-06T06:48:51.058Z,14.90
2017-12-06T06:51:17.851Z,14.47
2017-12-06T06:53:45.462Z,14.17
2017-12-06T06:56:12.272Z,12.53
2017-12-06T06:58:39.047Z,12.60
2017-12-06T07:01:05.787Z,12.80
2017-12-06T07:03:32.539Z,13.30
2017-12-06T07:06:00.064Z,12.17
2017-12-06T07:08:26.829Z,12.23
2017-12-06T07:10:53.560Z,13.50
2017-12-06T07:13:20.355Z,13.03
2017-12-06T07:15:47.823Z,12.30
2017-12-06T07:18:14.564Z,12.77
2017-12-06T07:20:41.331Z,12.43
2017-12-06T07:23:08.062Z,13.07
2017-12-06T07:25:35.367Z,12.37
2017-12-06T07:28:02.202Z,12.97
2017-12-06T07:30:29.767Z,13.10
2017-12-06T07:32:56.506Z,12.17
2017-12-06T07:35:23.248Z,12.10
2017-12-06T07:37:49.989Z,11.70
2017-12-06T07:40:16.727Z,11.97
2017-12-06T07:42:43.466Z,10.67
2017-12-06T07:45:10.259Z,11.33
2017-12-06T07:47:36.998Z,10.77
2017-12-06T07:50:03.724Z,10.43
2017-12-06T07:52:30.487Z,11.00
2017-12-06T07:54:58.057Z,10.67
2017-12-06T07:57:24.754Z,10.77
2017-12-06T07:59:51.492Z,10.97
2017-12-06T08:02:18.231Z,10.67
2017-12-06T08:04:44.956Z,10.73
2017-12-06T08:07:11.721Z,9.83
2017-12-06T08:09:38.509Z,10.00
2017-12-06T08:12:05.269Z,9.73
2017-12-06T08:14:32.019Z,9.27
2017-12-06T08:16:58.776Z,9.27
2017-12-06T08:19:25.513Z,9.17
2017-12-06T08:21:52.257Z,8.60
2017-12-06T08:24:18.997Z,9.57
2017-12-06T08:26:45.746Z,8.70
2017-12-06T08:29:12.475Z,8.93
2017-12-06T08:31:39.198Z,9.30
2017-12-06T08:34:05.960Z,8.83
2017-12-06T08:36:32.680Z,9.73
2017-12-06T08:38:59.429Z,8.87
2017-12-06T08:41:26.173Z,9.93
2017-12-06T08:43:52.885Z,9.60
2017-12-06T08:46:19.618Z,8.53
2017-12-06T08:48:46.394Z,8.40
2017-12-06T08:51:13.134Z,8.47
2017-12-06T08:53:40.619Z,9.13
2017-12-06T08:56:07.368Z,9.73
2017-12-06T08:58:34.108Z,9.60
2017-12-06T09:01:00.860Z,8.70
2017-12-06T09:03:27.595Z,8.93
2017-12-06T09:05:54.380Z,9.20
2017-12-06T09:08:21.106Z,10.03
2017-12-06T09:10:47.847Z,9.63
2017-12-06T09:13:14.585Z,9.63
2017-12-06T09:15:41.337Z,9.63
2017-12-06T09:18:08.087Z,9.57
2017-12-06T09:20:34.895Z,9.67
2017-12-06T09:23:01.634Z,8.97
2017-12-06T09:25:28.422Z,8.83
2017-12-06T09:27:55.137Z,8.77
2017-12-06T09:30:21.867Z,9.43
2017-12-06T09:32:49.407Z,9.77
2017-12-06T09:35:16.146Z,9.20
2017-12-06T09:37:42.896Z,8.50
2017-12-06T09:40:09.648Z,8.83
2017-12-06T09:42:36.380Z,9.83
2017-12-06T09:45:03.126Z,10.83
2017-12-06T09:47:29.865Z,9.53
2017-12-06T09:49:56.607Z,10.00
2017-12-06T09:52:24.155Z,10.20
2017-12-06T09:54:50.907Z,10.07
2017-12-06T09:57:17.675Z,10.50
2017-12-06T09:59:45.170Z,10.13
2017-12-06T10:02:11.916Z,10.17
2017-12-06T10:04:38.676Z,10.90
2017-12-06T10:07:06.176Z,11.30
2017-12-06T10:09:33.245Z,11.07
2017-12-06T10:12:01.297Z,11.40
2017-12-06T10:14:28.024Z,10.80
2017-12-06T10:16:54.791Z,11.40
2017-12-06T10:19:21.532Z,11.50
2017-12-06T10:21:48.332Z,11.37
2017-12-06T10:24:15.844Z,12.30
2017-12-06T10:26:42.619Z,12.27
2017-12-06T10:29:10.204Z,12.60
2017-12-06T10:31:36.964Z,12.10
2017-12-06T10:34:03.688Z,12.10
2017-12-06T10:36:30.434Z,11.83
2017-12-06T10:38:57.170Z,12.40
2017-12-06T10:41:23.930Z,12.60
2017-12-06T10:43:50.723Z,12.17
2017-12-06T10:46:17.468Z,12.70
2017-12-06T10:48:44.226Z,12.53
2017-12-06T10:51:10.979Z,13.03
2017-12-06T10:53:37.748Z,13.03
2017-12-06T10:56:04.474Z,13.23
2017-12-06T10:58:31.214Z,13.20
2017-12-06T11:00:57.956Z,12.70
2017-12-06T11:03:24.765Z,13.00
2017-12-06T11:05:51.509Z,13.43
2017-12-06T11:08:18.260Z,13.23
2017-12-06T11:10:45.017Z,12.97
2017-12-06T11:13:13.303Z,13.50
2017-12-06T11:15:40.835Z,13.40
2017-12-06T11:18:07.564Z,12.47
2017-12-06T11:20:34.328Z,13.50
2017-12-06T11:23:01.105Z,13.30
2017-12-06T11:25:28.577Z,14.17
2017-12-06T11:27:55.376Z,13.07
2017-12-06T11:30:23.596Z,14.27
2017-12-06T11:32:50.345Z,12.37
2017-12-06T11:35:17.072Z,13.27
2017-12-06T11:37:43.815Z,13.03
2017-12-06T11:40:10.547Z,13.77
2017-12-06T11:42:37.390Z,13.40
2017-12-06T11:45:04.110Z,13.00
2017-12-06T11:47:30.871Z,12.40
2017-12-06T11:49:57.612Z,13.50
2017-12-06T11:52:24.392Z,13.17
2017-12-06T11:54:51.127Z,12.53
2017-12-06T11:57:17.839Z,12.70
2017-12-06T11:59:44.601Z,12.20
2017-12-06T12:02:11.340Z,12.30
2017-12-06T12:04:38.094Z,13.00
2017-12-06T12:07:04.835Z,11.83
2017-12-06T12:09:31.584Z,11.97
2017-12-06T12:11:59.089Z,12.30
2017-12-06T12:14:25.853Z,12.00
2017-12-06T12:16:52.575Z,12.87
2017-12-06T12:19:19.396Z,11.43
2017-12-06T12:21:46.139Z,12.80
2017-12-06T12:24:12.875Z,12.37
2017-12-06T12:26:39.623Z,11.83
2017-12-06T12:29:06.383Z,12.27
2017-12-06T12:31:33.167Z,11.70
2017-12-06T12:33:59.889Z,12.33
2017-12-06T12:36:27.512Z,12.17
2017-12-06T12:38:54.243Z,12.23
2017-12-06T12:41:20.963Z,12.47
2017-12-06T12:43:47.715Z,12.00
2017-12-06T12:46:14.448Z,12.23
2017-12-06T12:48:41.203Z,12.50
2017-12-06T12:51:07.964Z,11.80
2017-12-06T12:53:34.732Z,12.00
2017-12-06T12:56:02.228Z,12.80
2017-12-06T12:58:28.962Z,12.43
2017-12-06T13:00:55.752Z,12.77
2017-12-06T13:03:23.277Z,12.13
2017-12-06T13:05:50.035Z,13.07
2017-12-06T13:08:16.782Z,12.70
2017-12-06T13:10:43.508Z,12.77
2017-12-06T13:13:11.045Z,12.20
2017-12-06T13:15:37.769Z,12.40
2017-12-06T13:18:04.527Z,13.37
2017-12-06T13:20:31.295Z,13.40
2017-12-06T13:22:58.032Z,13.07
2017-12-06T13:25:25.539Z,13.03
2017-12-06T13:27:52.292Z,13.10
2017-12-06T13:30:19.046Z,13.00
2017-12-06T13:32:45.803Z,14.27
2017-12-06T13:35:12.543Z,14.13
2017-12-06T13:37:39.293Z,13.30
2017-12-06T13:40:06.788Z,13.17
2017-12-06T13:42:33.550Z,14.70
2017-12-06T13:45:00.298Z,12.97
2017-12-06T13:47:27.050Z,13.40
2017-12-06T13:49:53.791Z,13.07
2017-12-06T13:52:21.299Z,13.10
2017-12-06T13:54:48.234Z,13.07
2017-12-06T13:57:14.989Z,12.33
2017-12-06T13:59:41.756Z,14.60
2017-12-06T14:02:08.501Z,14.07
2017-12-06T14:04:35.248Z,13.60
2017-12-06T14:07:02.056Z,14.67
2017-12-06T14:09:28.903Z,14.50
2017-12-06T14:11:55.636Z,13.63
2017-12-06T14:14:23.160Z,13.77
2017-12-06T14:16:50.167Z,13.97
2017-12-06T14:19:16.940Z,14.27
2017-12-06T14:21:43.683Z,14.07
2017-12-06T14:24:10.413Z,18.07
2017-12-06T14:26:37.931Z,24.70
2017-12-06T14:29:06.207Z,24.23
2017-12-06T14:31:32.962Z,25.53
2017-12-06T14:33:59.839Z,18.17
2017-12-06T14:36:26.594Z,17.37
2017-12-06T14:38:53.347Z,17.63
2017-12-06T14:41:20.080Z,17.00
2017-12-06T14:43:46.942Z,19.00
2017-12-06T14:46:13.699Z,19.53
2017-12-06T14:48:40.468Z,17.93
2017-12-06T14:51:07.222Z,18.20
2017-12-06T14:53:33.960Z,19.40
2017-12-06T14:56:00.706Z,18.97
2017-12-06T14:58:28.241Z,19.37
2017-12-06T15:00:55.757Z,19.97
2017-12-06T15:03:22.514Z,19.83
2017-12-06T15:05:49.244Z,20.37
2017-12-06T15:08:16.012Z,19.47
2017-12-06T15:10:43.526Z,18.17
2017-12-06T15:13:10.359Z,20.83
2017-12-06T15:15:37.106Z,18.03
2017-12-06T15:18:03.863Z,20.00
2017-12-06T15:20:30.616Z,18.70
2017-12-06T15:22:58.154Z,19.83
2017-12-06T15:25:25.776Z,18.97
2017-12-06T15:27:52.550Z,19.30
2017-12-06T15:30:19.307Z,20.10
2017-12-06T15:32:46.031Z,19.30
2017-12-06T15:35:12.771Z,20.03
2017-12-06T15:37:39.528Z,21.13
2017-12-06T15:40:07.231Z,20.93
2017-12-06T15:42:33.970Z,20.47
2017-12-06T15:45:00.704Z,20.50
2017-12-06T15:47:27.484Z,20.97
2017-12-06T15:49:54.234Z,20.77
2017-12-06T15:52:20.980Z,20.13
2017-12-06T15:54:47.755Z,20.60
2017-12-06T15:57:14.515Z,19.03
2017-12-06T15:59:41.279Z,19.97
2017-12-06T16:02:08.012Z,20.87
2017-12-06T16:04:34.866Z,21.73
2017-12-06T16:07:01.616Z,20.13
2017-12-06T16:09:28.432Z,20.90
2017-12-06T16:11:55.172Z,20.40
2017-12-06T16:14:21.917Z,20.37
2017-12-06T16:16:48.677Z,19.60
2017-12-06T16:19:15.421Z,19.53
2017-12-06T16:21:42.940Z,20.17
2017-12-06T16:24:09.676Z,20.20
2017-12-06T16:26:36.454Z,20.07
2017-12-06T16:29:03.965Z,20.50
2017-12-06T16:31:30.814Z,20.00
2017-12-06T16:33:57.592Z,20.40
2017-12-06T16:36:24.327Z,21.73
2017-12-06T16:38:51.830Z,19.97
2017-12-06T16:41:18.572Z,20.37
2017-12-06T16:43:45.311Z,21.33
2017-12-06T16:46:12.052Z,21.27
2017-12-06T16:48:38.858Z,20.27
2017-12-06T16:51:06.351Z,22.33
2017-12-06T16:53:33.105Z,21.27
2017-12-06T16:55:59.868Z,21.33
2017-12-06T16:58:26.619Z,21.70
2017-12-06T17:00:53.385Z,20.87
2017-12-06T17:03:20.914Z,21.67
2017-12-06T17:05:48.450Z,20.47
2017-12-06T17:08:15.202Z,20.53
2017-12-06T17:10:41.974Z,20.30
2017-12-06T17:13:08.814Z,19.23
2017-12-06T17:15:35.583Z,21.23
2017-12-06T17:18:02.318Z,21.00
2017-12-06T17:20:29.044Z,21.93
2017-12-06T17:22:55.794Z,21.27
2017-12-06T17:25:22.555Z,19.90
2017-12-06T17:27:49.279Z,21.40
2017-12-06T17:30:16.037Z,21.73
2017-12-06T17:32:42.769Z,21.67
2017-12-06T17:35:09.533Z,20.70
2017-12-06T17:37:36.279Z,20.33
2017-12-06T17:40:03.020Z,22.73
2017-12-06T17:42:30.552Z,22.00
2017-12-06T17:44:57.970Z,20.50
2017-12-06T17:47:24.714Z,21.47
2017-12-06T17:49:51.486Z,20.50
2017-12-06T17:52:18.228Z,20.20
2017-12-06T17:54:45.006Z,21.67
2017-12-06T17:57:11.731Z,21.20
2017-12-06T17:59:39.247Z,20.37
2017-12-06T18:02:05.989Z,20.37
2017-12-06T18:04:32.818Z,20.50
2017-12-06T18:07:00.302Z,22.17
2017-12-06T18:09:27.058Z,21.17
2017-12-06T18:11:54.839Z,22.83
2017-12-06T18:14:21.596Z,21.73
2017-12-06T18:16:48.359Z,20.53
2017-12-06T18:19:15.097Z,22.40
2017-12-06T18:21:41.858Z,21.73
2017-12-06T18:24:08.576Z,23.07
2017-12-06T18:26:35.368Z,21.63
2017-12-06T18:29:02.885Z,21.20
2017-12-06T18:31:29.638Z,22.03
2017-12-06T18:33:56.372Z,21.07
2017-12-06T18:36:23.161Z,22.03
2017-12-06T18:38:49.895Z,22.43
2017-12-06T18:41:16.640Z,20.83
2017-12-06T18:43:43.457Z,21.20
2017-12-06T18:46:10.968Z,21.73
2017-12-06T18:48:37.737Z,19.90
2017-12-06T18:51:04.497Z,21.53
2017-12-06T18:53:32.011Z,21.73
2017-12-06T18:55:58.787Z,20.93
2017-12-06T18:58:26.295Z,21.90
2017-12-06T19:00:53.051Z,20.97
2017-12-06T19:03:19.814Z,19.50
2017-12-06T19:05:47.328Z,20.13
2017-12-06T19:08:14.090Z,20.80
2017-12-06T19:10:40.886Z,21.73
2017-12-06T19:13:07.683Z,21.43
2017-12-06T19:15:34.421Z,23.20
2017-12-06T19:18:01.936Z,19.20
2017-12-06T19:20:28.685Z,20.80
2017-12-06T19:22:55.462Z,20.87
2017-12-06T19:25:22.204Z,21.20
2017-12-06T19:27:48.940Z,20.97
2017-12-06T19:30:15.670Z,19.90
2017-12-06T19:32:42.596Z,20.30
2017-12-06T19:35:09.351Z,19.67
2017-12-06T19:37:36.073Z,19.50
2017-12-06T19:40:02.844Z,19.80
2017-12-06T19:42:30.383Z,18.83
2017-12-06T19:44:57.141Z,17.73
2017-12-06T19:47:23.900Z,19.13
2017-12-06T19:49:51.436Z,18.40
2017-12-06T19:52:18.187Z,18.67
2017-12-06T19:54:45.738Z,17.83
2017-12-06T19:57:12.477Z,18.10
2017-12-06T19:59:40.064Z,17.43
2017-12-06T20:02:07.541Z,16.37
2017-12-06T20:04:34.308Z,15.57
2017-12-06T20:07:01.059Z,15.40
2017-12-06T20:09:27.825Z,16.97
2017-12-06T20:11:55.343Z,15.80
2017-12-06T20:14:22.107Z,16.93
2017-12-06T20:16:49.644Z,16.73
2017-12-06T20:19:16.528Z,16.50
2017-12-06T20:21:44.032Z,16.13
2017-12-06T20:24:10.783Z,16.57
2017-12-06T20:26:37.529Z,15.80
2017-12-06T20:29:04.281Z,16.37
2017-12-06T20:31:31.870Z,14.93
2017-12-06T20:33:58.696Z,16.17
2017-12-06T20:36:25.485Z,14.80
2017-12-06T20:38:52.233Z,14.07
2017-12-06T20:41:18.967Z,14.20
2017-12-06T20:43:45.739Z,13.70
2017-12-06T20:46:13.260Z,15.63
2017-12-06T20:48:40.028Z,16.10
2017-12-06T20:51:06.769Z,13.50
2017-12-06T20:53:34.285Z,15.43
2017-12-06T20:56:01.052Z,14.47
2017-12-06T20:58:27.784Z,15.57
2017-12-06T21:00:54.616Z,14.87
2017-12-06T21:03:21.348Z,14.53
2017-12-06T21:05:48.107Z,17.23
2017-12-06T21:08:15.554Z,15.63
2017-12-06T21:10:42.318Z,14.27
2017-12-06T21:13:09.043Z,15.60
2017-12-06T21:15:35.866Z,15.47
2017-12-06T21:18:02.585Z,14.63
2017-12-06T21:20:29.411Z,15.03
2017-12-06T21:22:56.931Z,14.23
2017-12-06T21:25:23.644Z,14.40
2017-12-06T21:27:50.641Z,15.33
2017-12-06T21:30:18.138Z,14.23
2017-12-06T21:32:45.050Z,12.90
2017-12-06T21:35:12.545Z,12.30
2017-12-06T21:37:39.316Z,12.67
2017-12-06T21:40:06.884Z,12.53
2017-12-06T21:42:33.655Z,12.73
2017-12-06T21:45:00.419Z,12.03
2017-12-06T21:47:27.173Z,11.90
2017-12-06T21:49:53.940Z,10.97
2017-12-06T21:52:21.575Z,10.83
2017-12-06T21:54:48.324Z,11.53
2017-12-06T21:57:15.835Z,11.50
2017-12-06T21:59:42.601Z,11.53
2017-12-06T22:02:09.346Z,12.00
2017-12-06T22:04:36.133Z,9.80
2017-12-06T22:07:02.888Z,9.97
2017-12-06T22:09:29.632Z,10.47
2017-12-06T22:11:56.397Z,9.17
2017-12-06T22:14:23.154Z,9.93
2017-12-06T22:16:49.931Z,9.23
2017-12-06T22:19:16.677Z,9.23
2017-12-06T22:21:43.423Z,8.97
2017-12-06T22:24:10.154Z,8.50
2017-12-06T22:26:36.887Z,8.80
2017-12-06T22:29:03.641Z,9.07
2017-12-06T22:31:30.376Z,9.43
2017-12-06T22:33:57.121Z,8.70
2017-12-06T22:36:23.894Z,8.97
2017-12-06T22:38:50.628Z,8.87
2017-12-06T22:41:17.380Z,8.70
2017-12-06T22:43:44.104Z,8.73
2017-12-06T22:46:10.864Z,8.50
2017-12-06T22:48:37.575Z,8.17
2017-12-06T22:51:04.340Z,8.27
2017-12-06T22:53:31.087Z,9.67
2017-12-06T22:55:58.575Z,8.23
2017-12-06T22:58:25.358Z,8.70
2017-12-06T23:00:52.097Z,8.50
2017-12-06T23:03:18.865Z,8.83
2017-12-06T23:05:46.372Z,8.47
2017-12-06T23:08:13.120Z,7.37
2017-12-06T23:10:39.875Z,7.87
2017-12-06T23:13:06.601Z,7.40
2017-12-06T23:15:33.356Z,6.33
2017-12-06T23:18:00.095Z,7.37
2017-12-06T23:20:26.863Z,7.03
2017-12-06T23:22:54.363Z,7.00
2017-12-06T23:25:21.105Z,7.30
2017-12-06T23:27:47.844Z,7.40
2017-12-06T23:30:14.592Z,7.17
2017-12-06T23:32:41.319Z,6.03
2017-12-06T23:35:08.070Z,7.37
2017-12-06T23:37:34.823Z,5.87
2017-12-06T23:40:01.602Z,6.40
2017-12-06T23:42:28.366Z,6.33
2017-12-06T23:44:55.113Z,6.40
2017-12-06T23:47:21.848Z,6.67
2017-12-06T23:49:48.580Z,6.73
2017-12-06T23:52:15.322Z,5.97
2017-12-06T23:54:42.183Z,5.73
2017-12-06T23:57:08.923Z,6.70
2017-12-06T23:59:35.704Z,5.90
